Pagina principale
METAR-TAF:

METAR-TAF

Aeroporti :

Emmen, Svizzera

latitudine: 47-05-32N, longitudine: 8-18-16E, altezza: 426 m

Osservazione

Il bollettino è stato emesso 50 minuti fa, alle 07:20 UTC
Vento 3 kt da nord-ovest, variando fra ovest/nord-ovest e nord
Temperature 1°C
Umidità 80%
Pressione 1012 hPa
Visibilità: 5000 m
Cielo coperto ad un'altezza di 1100 ft

METAR: LSME 210720Z 32003KT 300V360 5000 OVC011 01/M02 Q1012 RMK SVFR GRN

Ora: 09:10 (08:10 UTC)


TAF: mancante

Osservazioni e previsioni meteorologiche di più di 4000 aeroporti (messaggi METAR e TAF).

Le stazioni disponibili sono rappresentate dai dischi gialli e rossi sulla carta.

Puntare il mouse per vedere il nome della stazione.

Clicca sopra per visualizzare le osservazioni e previsioni meteorologiche.

Per cambiare la mappa : fare clic sui pulsanti verdi con una croce nera per ingrandire, il pulsante verde con un trattino per diminuire, o sulla freccia verde per le mappe adiacenti.


METAR-TAF: